Iowa Falls, Iowa
Current Conditions -  °F | °C
As of 6:15 AM on Monday 26 Jan 2015 (Local Time) from KIFA Reporting Station
Overcast Overcast  
Wind Chill: -7°   Ceiling: 1400
Heat Index: -1°   Visibility: 10mi
Dew Point: -2°   Wind: 16mph
Humidity: 90%   Direction: 210°SSW
Pressure: 29.86"   Gusts: NA
Location:  42.52°N, 93.26°W
Report Text: KIFA 261215Z AUTO 21014KT 10SM BKN014 BKN060 OVC080 M01/M02 A2986 RMK AO2 T10081023
Loading
Personal Weather Stations






























Interactive Weather Map New forecast layout! Learn more

10-Day Weather Forecast

Advertisements
Track Severe Weather on mobile